Issue, Maryland
Current Conditions -  °F | °C
As of 9:28 PM on Wednesday 17 Dec 2014 (Local Time) from K2W6 Reporting Station
Clear Clear  
Wind Chill: 41°   Ceiling: Unl
Heat Index: 41°   Visibility: 10mi
Dew Point: 27°   Wind: 3mph
Humidity: 57%   Direction: 310°NW
Pressure: 30.05"   Gusts: NA
Location:  38.31°N, 76.92°W
Report Text: K2W6 180228Z AUTO 31003KT 10SM CLR 05/M03 A3005 RMK AO1
Loading
Personal Weather Stations






























Interactive Weather Map New forecast layout! Learn more

10-Day Weather Forecast

Advertisements
Track Severe Weather on mobile